東京理科大学Ⅰ部体育局航空部

このエントリーをはてなブックマークに追加

ようこそ、理科大航空部HPへ! ここでは、航空部に関する情報や、活動などをお知らせしています。


METAR・TAF

TOKYO INTERNATIONAL
Metar
RJTT 161300Z 01016KT 9999 FEW030 SCT070 07/M04 Q1011 TEMPO 34022G32KT RMK 1CU030 3AC070 A2987

13:00 UTC

Wind: 10° 16kt

Visibility: 9999 m

Sky: FEW 3000 ft

Temp: 7 deg C / 44.6 deg F

Dewpoint: -4 deg C / 24.8 deg F

Pressure: 1011 hPa

TAF
TAF RJTT 161105Z 1612/1718 34020KT 9999 FEW030 SCT060 TEMPO 1612/1622 34024G34KT BECMG 1703/1706 36010KT
NARITA INTERNATIONAL
Metar
RJAA 161300Z 33006KT 9999 FEW020 SCT/// 04/M04 Q1011 NOSIG RMK 1CU020 A2985

13:00 UTC

Wind: 330° 6kt

Visibility: 9999 m

Sky: FEW 2000 ft

Temp: 4 deg C / 39.2 deg F

Dewpoint: -4 deg C / 24.8 deg F

Pressure: 1011 hPa

TAF
TAF RJAA 161105Z 1612/1718 35012KT 9999 FEW030